Lemhi County Airport
KSMN : now visible

Airfield :











YOU CAN JOIN US ON...

 
LOGIN :

Register | Disclaimer

   EN    FR    IT 

 









Legend :    VFR   Marginal VFR   IFR   Intensive IFR   Very Intensive IFR
Visi :
Ceiling :
>= 8 km
>= 3000ft
5 to 8 km
1000 to 3000 ft
1500m to 5 km
500 to 1000 ft
800 to 1500m
200 to 500 ft
< 800m
< 200 ft
Symbols :   Thunderstorms  Fog  Heavy snow  Heavy precipitations  Wind > 20 kt






- Airport Elevation : 4043 ft


KSMN - Lemhi County

CURRENT METAR :
  • 121903Z AUTO 24003KT 7SM BKN008 BKN041 02/M01 A3002 RMK AO2 FZRANO

EXPIRED METARs :
  • 121856Z AUTO 00000KT 6SM BR SCT008 BKN012 BKN041 01/M01 A3002 RMK AO2 SNE42 SLP198 P0002 T00111011 FZRANO
  • 121841Z AUTO 00000KT 6SM -SN BR BKN010 BKN014 OVC041 00/M01 A3001 RMK AO2 P0002 FZRANO
  • 121820Z AUTO 35007KT 3SM -SN BR FEW004 OVC008 M01/M02 A3002 RMK AO2 CIG 007V012 P0002 FZRANO
  • 121812Z AUTO 34004KT 2 1/2SM -SN BR BKN004 OVC010 M01/M02 A3001 RMK AO2 CIG 004V008 P0002 FZRANO
  • 121756Z AUTO 33007KT 3SM -SN BR FEW004 BKN008 OVC015 M01/M02 A3002 RMK AO2 CIG 007V010 SLP202 P0001 60003 T10061017 11006 21028 53007 FZRANO
  • 121744Z AUTO 00000KT 1 1/2SM -SN BR FEW004 OVC013 M01/M02 A3001 RMK AO2 VIS 3/4V2 1/2 P0001 FZRANO
  • 121711Z AUTO 00000KT 3/4SM -SN BR FEW011 BKN017 OVC032 M01/M02 A3002 RMK AO2 P0001 FZRANO
  • 121701Z AUTO 00000KT 1 3/4SM -SN BR FEW011 BKN026 OVC032 M01/M02 A3001 RMK AO2 P0000 FZRANO
  • 121656Z AUTO 17003KT 2SM -SN BR SCT011 SCT026 OVC035 M01/M02 A3000 RMK AO2 SLP197 P0001 T10111022 FZRANO
  • 121646Z AUTO 20005KT 1SM -SN BR SCT012 BKN035 OVC043 M02/M02 A3000 RMK AO2 P0001 FZRANO
  • 121627Z AUTO 00000KT 1 1/2SM -SN BR FEW008 BKN014 OVC050 M02/M03 A3000 RMK AO2 P0001 FZRANO
  • 121616Z AUTO 00000KT 2 1/2SM -SN BR SCT008 BKN048 OVC060 M02/M03 A3000 RMK AO2 P0000 FZRANO

TAF KSMN
Valid from the 12 at 18:00 until the 13 at 18:00 UTC


121720Z 1218/1318 VRB03KT 1 1/2SM -SN BR SCT010 BKN025
FM121900 34006KT P6SM VCSH SCT030 BKN050
FM130400 22005KT 3SM -SN BKN030 OVC050
FM130700 21007G15KT 6SM -SHSN BR OVC035



MET'MAP, your aeronautical weather chart ! - Copyright ORBIFLY December 2007 - Disclaimer

ORBIFLY MET'MAP TEAM :

Programming & Development : Alexandra Zaïnal
Concept & original design : Baudouin d'Aumeries
Assistance for programming : Marc-Olivier Méhu
Technical & hardware support : Manuel Goepfert

Contact : metmap@orbifly.com




SOURCES & CREDITS :

   NOAA       Earth
Advisory